Time;durP1;ratioP1;P1;durP2;ratioP2;P2;SDS_P1;SDS_P2;PMS_P1;PMS_P2;Temp;Humidity;BMP_temperature;BMP_pressure;BME280_temperature;BME280_humidity;BME280_pressure;Samples;Min_cycle;Max_cycle;Signal;HPM_P1;HPM_P2
2022/09/02 00:01:02;;;;;;;2.28;2.08;;;18.30;92.70;;;;;;5074639;28;20039;-43
2022/09/02 00:03:30;;;;;;;3.63;1.83;;;18.30;92.80;;;;;;5074128;28;20024;-44
2022/09/02 00:05:56;;;;;;;2.15;1.80;;;18.30;92.80;;;;;;5074496;28;20020;-44
2022/09/02 00:08:22;;;;;;;3.88;1.77;;;18.20;92.80;;;;;;5074671;28;20028;-44
2022/09/02 00:10:48;;;;;;;3.20;2.38;;;18.20;92.90;;;;;;5056740;28;20518;-42
2022/09/02 00:13:15;;;;;;;2.00;1.67;;;18.10;92.90;;;;;;5074293;28;20454;-43
2022/09/02 00:15:42;;;;;;;1.58;1.48;;;18.10;93.00;;;;;;5074375;28;20028;-43
2022/09/02 00:18:11;;;;;;;2.30;2.10;;;18.10;93.00;;;;;;5074129;28;20099;-45
2022/09/02 00:20:37;;;;;;;6.18;2.15;;;18.10;93.10;;;;;;5074591;28;20359;-46
2022/09/02 00:23:03;;;;;;;2.85;1.75;;;18.20;93.00;;;;;;5073976;28;20016;-44
2022/09/02 00:25:28;;;;;;;4.82;1.80;;;18.10;93.10;;;;;;5074199;28;20027;-43
2022/09/02 00:27:54;;;;;;;3.90;1.83;;;18.10;93.00;;;;;;5074222;28;20036;-45
2022/09/02 00:30:19;;;;;;;1.90;1.80;;;18.00;93.10;;;;;;5074023;28;20033;-46
2022/09/02 00:32:45;;;;;;;3.10;1.88;;;18.10;93.20;;;;;;5073779;28;20075;-43
2022/09/02 00:35:10;;;;;;;1.63;1.35;;;18.10;93.20;;;;;;5074162;28;20438;-45
2022/09/02 00:37:37;;;;;;;3.53;1.65;;;18.10;93.00;;;;;;5073693;28;20690;-43
2022/09/02 00:40:05;;;;;;;2.88;1.67;;;18.10;93.10;;;;;;5074620;28;20024;-43
2022/09/02 00:42:31;;;;;;;2.03;1.45;;;18.10;93.30;;;;;;5073552;28;20017;-45
2022/09/02 00:44:57;;;;;;;3.40;1.67;;;18.10;93.20;;;;;;5073792;28;20020;-44
2022/09/02 00:47:23;;;;;;;5.72;1.63;;;18.10;93.30;;;;;;5073887;28;20020;-44
2022/09/02 00:49:52;;;;;;;2.65;1.77;;;18.10;93.30;;;;;;5073923;28;20029;-44
2022/09/02 00:52:23;;;;;;;5.03;2.22;;;18.10;93.40;;;;;;5073443;28;20403;-44
2022/09/02 00:54:54;;;;;;;2.78;1.80;;;18.10;93.40;;;;;;5074012;28;20032;-43
2022/09/02 00:57:22;;;;;;;3.40;1.90;;;18.00;93.50;;;;;;5073956;28;20024;-41
2022/09/02 01:00:06;;;;;;;2.55;1.70;;;18.10;93.40;;;;;;5074025;28;20480;-42
2022/09/02 01:02:32;;;;;;;3.90;1.65;;;18.00;93.40;;;;;;5073597;28;20400;-44
2022/09/02 01:04:59;;;;;;;2.53;1.80;;;18.00;93.50;;;;;;5073983;28;20028;-42
2022/09/02 01:07:28;;;;;;;2.10;1.50;;;17.90;93.60;;;;;;5073538;28;20029;-46
2022/09/02 01:09:55;;;;;;;1.80;1.70;;;18.00;93.60;;;;;;5073217;28;20044;-45
2022/09/02 01:12:21;;;;;;;2.90;1.70;;;18.00;93.70;;;;;;5072975;28;20029;-44
2022/09/02 01:14:47;;;;;;;4.40;1.67;;;17.90;93.70;;;;;;5073292;28;20024;-44
2022/09/02 01:17:18;;;;;;;3.75;1.42;;;17.90;93.80;;;;;;5073197;28;20067;-42
2022/09/02 01:19:52;;;;;;;1.83;1.58;;;17.90;93.80;;;;;;5073313;28;20024;-45
2022/09/02 01:22:21;;;;;;;9.25;1.75;;;17.90;93.90;;;;;;5072844;28;20055;-43
2022/09/02 01:24:47;;;;;;;3.88;1.50;;;17.90;94.00;;;;;;5073119;28;20190;-43
2022/09/02 01:27:18;;;;;;;7.13;1.77;;;17.80;94.00;;;;;;5073270;28;20100;-44
2022/09/02 01:29:44;;;;;;;4.63;1.50;;;17.80;94.00;;;;;;5072953;28;20492;-47
2022/09/02 01:32:11;;;;;;;2.47;1.90;;;17.70;94.10;;;;;;5072563;28;20115;-45
2022/09/02 01:34:37;;;;;;;1.88;1.77;;;17.80;94.10;;;;;;5073019;28;20541;-44
2022/09/02 01:37:03;;;;;;;4.65;1.45;;;17.80;94.10;;;;;;5072617;28;20488;-43
2022/09/02 01:39:28;;;;;;;3.28;1.73;;;17.80;94.20;;;;;;5072784;28;20025;-41
2022/09/02 01:41:54;;;;;;;2.85;1.60;;;17.70;94.20;;;;;;5072720;28;20021;-43
2022/09/02 01:44:19;;;;;;;6.38;1.75;;;17.70;94.30;;;;;;5072635;28;20096;-43
2022/09/02 01:46:45;;;;;;;2.20;1.60;;;17.60;94.40;;;;;;5072629;28;20024;-50
2022/09/02 01:49:11;;;;;;;3.75;1.42;;;17.70;94.50;;;;;;5071883;28;20090;-45
2022/09/02 01:51:36;;;;;;;3.58;1.83;;;17.60;94.50;;;;;;5072425;28;20036;-40
2022/09/02 01:54:02;;;;;;;2.03;1.42;;;17.60;94.60;;;;;;5071988;28;20040;-49
2022/09/02 01:56:28;;;;;;;1.80;1.48;;;17.60;94.70;;;;;;5072508;28;20397;-43
2022/09/02 01:58:54;;;;;;;3.20;1.92;;;17.60;94.80;;;;;;5072337;28;20487;-45
2022/09/02 02:01:19;;;;;;;2.75;1.67;;;17.50;94.80;;;;;;5072459;28;20021;-44
2022/09/02 02:03:45;;;;;;;3.33;1.63;;;17.50;94.90;;;;;;5072049;28;20077;-40
2022/09/02 02:06:15;;;;;;;4.90;1.60;;;17.50;94.90;;;;;;5072226;28;20420;-44
2022/09/02 02:08:41;;;;;;;3.95;1.52;;;17.40;95.00;;;;;;5072214;28;20078;-43
2022/09/02 02:11:07;;;;;;;3.90;1.92;;;17.40;95.10;;;;;;5072221;28;20024;-46
2022/09/02 02:13:34;;;;;;;3.05;1.42;;;17.40;95.20;;;;;;5071846;28;20020;-41
2022/09/02 02:15:59;;;;;;;2.38;1.38;;;17.40;95.30;;;;;;5072124;28;20032;-43
2022/09/02 02:18:25;;;;;;;5.07;1.58;;;17.30;95.40;;;;;;5071888;28;20031;-44
2022/09/02 02:20:51;;;;;;;2.80;1.83;;;17.30;95.40;;;;;;5071965;28;20099;-44
2022/09/02 02:23:17;;;;;;;2.67;1.88;;;17.20;95.50;;;;;;5071630;28;20129;-44
2022/09/02 02:25:42;;;;;;;2.50;1.50;;;17.80;95.80;;;;;;5072317;28;20067;-44
2022/09/02 02:28:08;;;;;;;1.63;1.52;;;17.10;95.70;;;;;;5072368;28;20395;-44
2022/09/02 02:30:33;;;;;;;1.73;1.63;;;17.10;95.90;;;;;;5071852;28;20021;-44
2022/09/02 02:32:59;;;;;;;2.92;1.80;;;17.10;96.10;;;;;;5071421;28;20433;-47
2022/09/02 02:35:25;;;;;;;6.40;1.67;;;17.00;95.90;;;;;;5071602;28;20029;-44
2022/09/02 02:37:52;;;;;;;4.47;1.92;;;17.00;96.00;;;;;;5071694;28;20038;-40
2022/09/02 02:40:20;;;;;;;2.10;1.90;;;17.00;96.00;;;;;;5071637;28;20028;-45
2022/09/02 02:42:46;;;;;;;3.60;1.52;;;16.90;96.20;;;;;;5071499;28;20104;-47
2022/09/02 02:45:12;;;;;;;2.97;1.80;;;16.90;96.30;;;;;;5071594;28;20107;-46
2022/09/02 02:47:40;;;;;;;3.20;1.70;;;16.70;96.40;;;;;;5072125;28;20038;-45
2022/09/02 02:50:09;;;;;;;1.95;1.52;;;16.70;96.40;;;;;;5071468;28;20020;-43
2022/09/02 02:52:34;;;;;;;3.13;2.00;;;16.70;96.60;;;;;;5071185;28;20028;-48
2022/09/02 02:55:00;;;;;;;4.78;1.60;;;16.70;96.60;;;;;;5071617;28;20021;-46
2022/09/02 02:57:26;;;;;;;3.63;2.00;;;16.60;96.70;;;;;;5071483;28;20393;-43
2022/09/02 02:59:51;;;;;;;1.88;1.77;;;16.70;96.80;;;;;;5071643;28;20028;-43
2022/09/02 03:02:17;;;;;;;6.72;2.00;;;16.60;96.90;;;;;;5071090;28;20033;-45
2022/09/02 03:04:42;;;;;;;3.50;1.90;;;16.60;96.90;;;;;;5071683;28;20013;-43
2022/09/02 03:07:08;;;;;;;3.83;2.10;;;16.60;97.00;;;;;;5071452;28;20060;-45
2022/09/02 03:09:34;;;;;;;5.13;1.80;;;16.60;96.90;;;;;;5071430;28;20028;-44
2022/09/02 03:12:00;;;;;;;1.83;1.52;;;16.50;97.00;;;;;;5070967;28;20553;-43
2022/09/02 03:14:26;;;;;;;1.98;1.80;;;16.50;97.00;;;;;;5053259;28;20048;-44
2022/09/02 03:16:51;;;;;;;4.47;3.03;;;16.50;97.20;;;;;;5071424;28;20056;-43
2022/09/02 03:19:17;;;;;;;4.22;1.38;;;16.40;97.30;;;;;;5071027;28;20071;-43
2022/09/02 03:21:43;;;;;;;3.38;2.17;;;16.40;97.30;;;;;;5071440;28;20434;-43
2022/09/02 03:24:10;;;;;;;2.13;1.95;;;16.30;97.30;;;;;;5070838;28;20021;-45
2022/09/02 03:26:35;;;;;;;3.80;1.83;;;16.30;97.40;;;;;;5071219;28;20028;-43
2022/09/02 03:29:01;;;;;;;2.17;1.73;;;16.20;97.50;;;;;;5071025;28;20387;-48
2022/09/02 03:31:27;;;;;;;4.15;1.67;;;16.20;97.60;;;;;;5071265;28;20028;-44
2022/09/02 03:33:54;;;;;;;10.93;2.33;;;16.10;97.70;;;;;;5070734;28;20032;-45
2022/09/02 03:36:20;;;;;;;7.95;2.00;;;16.10;97.70;;;;;;5071369;28;20028;-46
2022/09/02 03:38:46;;;;;;;1.88;1.77;;;16.10;98.00;;;;;;5071083;28;20028;-41
2022/09/02 03:41:11;;;;;;;6.55;1.77;;;16.00;98.10;;;;;;5071166;28;20135;-47
2022/09/02 03:43:37;;;;;;;3.35;2.22;;;16.00;98.10;;;;;;5070937;28;20024;-43
2022/09/02 03:46:03;;;;;;;2.72;1.83;;;16.00;98.10;;;;;;5071957;28;20507;-44
2022/09/02 03:48:29;;;;;;;3.17;1.60;;;16.00;98.20;;;;;;5070861;28;20045;-46
2022/09/02 03:50:54;;;;;;;1.67;1.58;;;15.90;98.30;;;;;;5071006;28;20020;-48
2022/09/02 03:53:20;;;;;;;2.13;1.75;;;15.80;98.30;;;;;;5071498;28;20407;-46
2022/09/02 03:55:45;;;;;;;2.38;1.80;;;15.90;98.50;;;;;;5070940;28;20024;-44
2022/09/02 03:58:12;;;;;;;1.63;1.52;;;15.90;98.50;;;;;;5070664;28;20480;-45
2022/09/02 04:00:37;;;;;;;2.35;1.88;;;15.80;98.40;;;;;;5070874;28;20028;-46
2022/09/02 04:03:03;;;;;;;2.05;1.88;;;15.80;98.60;;;;;;5070340;28;20369;-40
2022/09/02 04:05:29;;;;;;;3.97;1.98;;;15.90;98.60;;;;;;5071286;28;20044;-46
2022/09/02 04:07:56;;;;;;;2.75;2.00;;;15.90;98.60;;;;;;5070825;28;20029;-45
2022/09/02 04:10:22;;;;;;;1.70;1.60;;;15.90;98.60;;;;;;5070791;28;20036;-42
2022/09/02 04:12:49;;;;;;;3.80;2.55;;;15.90;98.70;;;;;;5073592;28;20420;-43
2022/09/02 04:15:15;;;;;;;8.20;1.90;;;15.80;98.70;;;;;;5074299;28;20373;-46
2022/09/02 04:17:41;;;;;;;2.40;2.10;;;15.80;98.70;;;;;;5074273;28;20029;-43
2022/09/02 04:20:10;;;;;;;3.17;1.90;;;15.90;98.70;;;;;;5074325;28;20062;-45
2022/09/02 04:22:35;;;;;;;2.30;2.10;;;15.80;98.80;;;;;;5073872;28;20116;-47
2022/09/02 04:25:02;;;;;;;6.95;2.17;;;15.80;98.80;;;;;;5074134;28;20052;-47
2022/09/02 04:27:27;;;;;;;3.58;2.25;;;15.80;98.80;;;;;;5074268;28;20446;-47
2022/09/02 04:29:53;;;;;;;5.05;2.00;;;15.80;98.80;;;;;;5074021;28;20082;-45
2022/09/02 04:32:20;;;;;;;3.90;2.13;;;15.80;98.90;;;;;;5073691;28;20097;-46
2022/09/02 04:34:46;;;;;;;10.90;2.42;;;15.70;99.00;;;;;;5073971;28;20024;-47
2022/09/02 04:37:12;;;;;;;5.95;2.90;;;15.80;99.10;;;;;;5074092;28;20432;-44
2022/09/02 04:39:38;;;;;;;2.58;2.22;;;15.80;99.10;;;;;;5074003;28;20362;-45
2022/09/02 04:42:04;;;;;;;7.63;2.40;;;15.80;99.10;;;;;;5073481;28;20113;-42
2022/09/02 04:44:29;;;;;;;7.00;1.73;;;15.90;99.00;;;;;;5073726;28;20487;-48
2022/09/02 04:46:55;;;;;;;2.40;2.20;;;15.90;98.90;;;;;;5074049;28;20016;-46
2022/09/02 04:49:21;;;;;;;5.22;2.15;;;15.90;98.90;;;;;;5073801;28;20027;-43
2022/09/02 04:51:46;;;;;;;2.33;2.00;;;15.90;98.90;;;;;;5073601;28;20040;-45
2022/09/02 04:54:12;;;;;;;3.53;2.10;;;15.90;98.90;;;;;;5073292;28;20033;-47
2022/09/02 04:56:38;;;;;;;3.97;2.00;;;15.90;98.80;;;;;;5073504;28;20024;-44
2022/09/02 04:59:04;;;;;;;6.10;2.00;;;15.90;98.80;;;;;;5073767;28;20036;-43
2022/09/02 05:01:32;;;;;;;7.43;1.88;;;16.00;98.70;;;;;;5073421;28;20025;-44
2022/09/02 05:04:01;;;;;;;9.65;1.92;;;16.00;98.70;;;;;;5073269;28;20025;-44
2022/09/02 05:06:27;;;;;;;4.68;2.67;;;16.00;98.70;;;;;;5073546;28;20247;-44
2022/09/02 05:08:53;;;;;;;6.85;2.10;;;16.00;98.60;;;;;;5073441;28;20028;-44
2022/09/02 05:11:22;;;;;;;4.00;2.28;;;16.10;98.70;;;;;;5073219;28;20174;-43
2022/09/02 05:13:50;;;;;;;4.57;1.77;;;16.20;98.60;;;;;;5072728;28;20020;-45
2022/09/02 05:16:21;;;;;;;7.93;1.90;;;16.20;98.50;;;;;;5073204;28;20063;-45
2022/09/02 05:18:48;;;;;;;3.50;1.90;;;16.20;98.40;;;;;;5072980;28;20024;-42
2022/09/02 05:21:14;;;;;;;2.65;2.20;;;16.20;98.40;;;;;;5073312;28;20036;-44
2022/09/02 05:23:40;;;;;;;2.20;1.55;;;16.30;98.50;;;;;;5071531;28;20032;-44
2022/09/02 05:26:07;;;;;;;3.10;2.17;;;16.30;98.30;;;;;;5073020;28;20021;-43
2022/09/02 05:28:33;;;;;;;7.00;2.20;;;16.30;98.30;;;;;;5072906;28;20028;-44
2022/09/02 05:31:05;;;;;;;5.72;1.88;;;16.40;98.20;;;;;;5072939;28;20020;-44
2022/09/02 05:33:33;;;;;;;2.65;1.67;;;16.40;98.10;;;;;;5072650;28;20021;-44
2022/09/02 05:35:58;;;;;;;1.90;1.80;;;16.40;98.20;;;;;;5073055;28;20090;-44
2022/09/02 05:38:24;;;;;;;3.03;1.80;;;16.40;98.20;;;;;;5072862;28;20036;-45
2022/09/02 05:40:50;;;;;;;4.93;1.92;;;16.40;98.20;;;;;;5072702;28;20047;-45
2022/09/02 05:43:16;;;;;;;3.50;1.83;;;16.40;98.20;;;;;;5072696;28;20460;-47
2022/09/02 05:45:41;;;;;;;2.10;2.00;;;16.40;98.20;;;;;;5072641;28;20029;-41
2022/09/02 05:49:05;;;;;;;2.22;2.03;;;16.30;98.20;;;;;;5072557;28;20040;-42
2022/09/02 05:50:52;;;;;;;4.13;2.20;;;16.30;98.20;;;;;;5072605;28;20434;-46
2022/09/02 05:53:18;;;;;;;3.20;2.03;;;16.30;98.30;;;;;;5071961;28;20119;-44
2022/09/02 05:55:44;;;;;;;4.85;1.85;;;16.40;98.30;;;;;;5072342;28;20024;-43
2022/09/02 05:58:09;;;;;;;4.45;2.05;;;16.40;98.30;;;;;;5072244;28;20442;-45
2022/09/02 06:00:36;;;;;;;7.00;2.00;;;16.50;98.20;;;;;;5072414;28;20025;-44
2022/09/02 06:03:02;;;;;;;1.88;1.77;;;16.70;97.90;;;;;;5072067;28;20142;-46
2022/09/02 06:05:27;;;;;;;2.13;1.92;;;16.90;97.60;;;;;;5072371;28;20091;-44
2022/09/02 06:07:53;;;;;;;3.95;1.50;;;17.30;97.00;;;;;;5072128;28;20024;-43
2022/09/02 06:10:18;;;;;;;1.85;1.70;;;17.70;96.50;;;;;;5072016;28;20036;-43
2022/09/02 06:12:44;;;;;;;2.80;2.17;;;18.30;95.50;;;;;;5071903;28;20051;-44
2022/09/02 06:15:11;;;;;;;5.72;1.58;;;18.70;94.70;;;;;;5072170;28;20020;-44
2022/09/02 06:17:36;;;;;;;2.00;1.85;;;18.90;94.10;;;;;;5071969;28;20024;-45
2022/09/02 06:20:03;;;;;;;3.83;1.80;;;19.10;93.80;;;;;;5072113;28;20311;-44
2022/09/02 06:22:28;;;;;;;2.95;2.67;;;19.20;93.60;;;;;;5071647;28;20141;-41
2022/09/02 06:24:54;;;;;;;4.50;1.92;;;19.60;93.10;;;;;;5072418;28;20551;-43
2022/09/02 06:27:19;;;;;;;2.78;1.92;;;20.00;92.50;;;;;;5071945;28;20055;-44
2022/09/02 06:29:45;;;;;;;3.97;2.10;;;20.70;91.80;;;;;;5072158;28;20112;-43
2022/09/02 06:32:10;;;;;;;2.63;1.80;;;21.10;90.90;;;;;;5071536;28;20214;-45
2022/09/02 06:34:38;;;;;;;1.83;1.60;;;21.20;90.60;;;;;;5053493;28;20046;-43
2022/09/02 06:37:03;;;;;;;7.32;2.28;;;21.30;90.40;;;;;;5071901;28;20294;-45
2022/09/02 06:39:29;;;;;;;2.05;1.60;;;21.70;89.90;;;;;;5072597;28;20436;-43
2022/09/02 06:41:55;;;;;;;2.38;1.80;;;22.00;88.30;;;;;;5053665;28;20016;-42
2022/09/02 06:44:20;;;;;;;2.78;1.65;;;22.20;87.90;;;;;;5071704;28;20078;-49
2022/09/02 06:46:52;;;;;;;4.95;1.83;;;22.20;87.30;;;;;;5071517;28;20047;-43
2022/09/02 06:49:17;;;;;;;3.65;1.60;;;22.30;87.20;;;;;;5071491;28;20029;-47
2022/09/02 06:51:46;;;;;;;2.90;1.45;;;22.40;86.70;;;;;;5071365;28;20027;-45
2022/09/02 06:54:17;;;;;;;1.73;1.58;;;22.40;86.30;;;;;;5071586;28;20064;-44
2022/09/02 06:56:44;;;;;;;2.92;1.40;;;22.80;85.70;;;;;;5071613;28;20028;-45
2022/09/02 06:59:10;;;;;;;4.75;1.92;;;23.20;84.10;;;;;;5071416;28;20032;-45
2022/09/02 07:01:36;;;;;;;4.57;1.60;;;23.10;83.70;;;;;;5053527;28;20082;-43
2022/09/02 07:06:50;;;;;;;4.32;1.80;;;23.10;83.70;;;;;;5071793;28;20081;-45
2022/09/02 07:09:19;;;;;;;4.10;1.50;;;23.30;83.60;;;;;;5071199;28;20372;-44
2022/09/02 07:11:46;;;;;;;1.98;1.45;;;23.40;83.50;;;;;;5053195;28;20118;-48
2022/09/02 07:14:14;;;;;;;1.70;1.60;;;23.60;83.10;;;;;;5071252;28;20032;-45
2022/09/02 07:16:46;;;;;;;2.85;1.52;;;23.60;82.30;;;;;;5072434;28;20048;-40
2022/09/02 07:19:13;;;;;;;2.78;1.52;;;23.70;82.90;;;;;;5073534;28;20071;-45
2022/09/02 07:21:40;;;;;;;6.03;1.42;;;24.00;81.60;;;;;;5072398;28;20029;-43
2022/09/02 07:24:07;;;;;;;3.40;1.70;;;24.20;81.20;;;;;;5070860;28;20062;-47
2022/09/02 07:26:32;;;;;;;1.52;1.40;;;24.40;80.50;;;;;;5071390;28;20544;-45
2022/09/02 07:28:58;;;;;;;4.00;1.60;;;24.90;79.80;;;;;;5071265;28;20063;-43
2022/09/02 07:31:26;;;;;;;4.85;1.88;;;25.00;79.20;;;;;;5071229;28;20036;-46
2022/09/02 07:33:51;;;;;;;3.00;1.40;;;24.80;78.20;;;;;;5070759;28;20024;-43
2022/09/02 07:36:20;;;;;;;3.13;1.70;;;24.60;79.10;;;;;;5071124;28;20111;-43
2022/09/02 07:38:46;;;;;;;2.20;2.00;;;24.40;79.30;;;;;;5071092;28;20078;-43
2022/09/02 07:41:12;;;;;;;9.52;2.00;;;24.50;79.30;;;;;;5053168;28;20476;-40
2022/09/02 07:43:40;;;;;;;4.35;1.38;;;24.70;79.00;;;;;;5070694;28;20369;-45
2022/09/02 07:46:06;;;;;;;2.13;1.40;;;25.10;78.20;;;;;;5071656;28;20017;-45
2022/09/02 07:48:33;;;;;;;8.63;1.65;;;25.30;77.80;;;;;;5074924;28;20024;-40
2022/09/02 07:51:00;;;;;;;2.90;1.40;;;25.60;77.60;;;;;;5074837;28;20517;-42
2022/09/02 07:53:26;;;;;;;3.90;1.50;;;26.20;76.20;;;;;;5074153;28;20060;-45
2022/09/02 07:55:52;;;;;;;3.97;1.50;;;26.30;74.90;;;;;;5074916;28;20047;-45
2022/09/02 07:58:21;;;;;;;1.88;1.50;;;26.40;74.80;;;;;;5074235;28;20028;-43
2022/09/02 08:00:47;;;;;;;3.80;1.20;;;26.80;74.20;;;;;;5074733;28;20095;-44
2022/09/02 08:03:14;;;;;;;1.70;1.48;;;26.80;73.80;;;;;;5074070;28;20031;-43
2022/09/02 08:05:41;;;;;;;3.42;1.30;;;26.70;73.90;;;;;;5074628;28;20036;-47
2022/09/02 08:08:07;;;;;;;1.50;1.40;;;26.80;73.50;;;;;;5074416;28;20472;-47
2022/09/02 08:10:35;;;;;;;1.30;1.20;;;26.30;74.00;;;;;;5074381;28;20074;-43
2022/09/02 08:13:04;;;;;;;1.20;1.10;;;26.40;74.40;;;;;;5074021;28;20035;-45
2022/09/02 08:15:30;;;;;;;1.40;1.08;;;26.30;74.00;;;;;;5074356;28;20025;-45
2022/09/02 08:17:56;;;;;;;6.97;1.40;;;26.80;73.00;;;;;;5074212;28;20081;-46
2022/09/02 08:20:21;;;;;;;2.22;1.35;;;26.90;73.20;;;;;;5073983;28;20055;-43
2022/09/02 08:22:47;;;;;;;3.33;1.20;;;27.00;72.80;;;;;;5073931;28;20025;-45
2022/09/02 08:25:12;;;;;;;5.95;1.50;;;27.00;72.30;;;;;;5074358;28;20044;-45
2022/09/02 08:27:38;;;;;;;1.95;1.30;;;27.00;72.30;;;;;;5074698;28;20078;-43
2022/09/02 08:30:08;;;;;;;5.28;1.17;;;27.00;71.70;;;;;;5074242;28;20033;-43
2022/09/02 08:32:34;;;;;;;3.17;1.40;;;26.70;72.50;;;;;;5073882;28;20025;-46
2022/09/02 08:35:01;;;;;;;1.40;1.30;;;26.90;72.00;;;;;;5074078;28;20029;-48
2022/09/02 08:37:29;;;;;;;2.13;0.82;;;27.30;78.40;;;;;;5073607;28;20032;-45
2022/09/02 08:39:55;;;;;;;2.67;1.55;;;27.50;71.40;;;;;;5074250;28;20028;-45
2022/09/02 08:42:29;;;;;;;7.15;1.30;;;27.70;70.00;;;;;;5073854;28;20033;-44
2022/09/02 08:45:03;;;;;;;3.25;1.30;;;27.50;70.30;;;;;;5074235;28;20032;-43
2022/09/02 08:47:33;;;;;;;1.30;0.90;;;27.50;70.10;;;;;;5074318;28;20139;-43
2022/09/02 08:50:05;;;;;;;3.22;1.10;;;27.80;69.90;;;;;;5074179;28;20178;-45
2022/09/02 08:52:38;;;;;;;1.90;1.15;;;27.90;69.60;;;;;;5073106;28;20063;-45
2022/09/02 08:55:06;;;;;;;4.25;1.15;;;27.50;70.20;;;;;;5073839;28;20051;-41
2022/09/02 08:57:32;;;;;;;2.88;1.50;;;27.70;69.50;;;;;;5073336;28;20030;-46
2022/09/02 09:00:00;;;;;;;3.22;1.00;;;27.90;70.30;;;;;;5073591;28;20024;-45
2022/09/02 09:02:34;;;;;;;1.17;1.08;;;28.20;72.50;;;;;;5073707;28;20418;-43
2022/09/02 09:05:11;;;;;;;4.37;1.40;;;28.60;68.50;;;;;;5073447;28;20020;-43
2022/09/02 09:07:58;;;;;;;2.08;0.85;;;28.70;67.20;;;;;;5073425;28;20047;-47
2022/09/02 09:11:00;;;;;;;1.10;0.98;;;28.30;67.60;;;;;;5073230;28;20043;-41
2022/09/02 09:13:57;;;;;;;1.95;1.20;;;27.70;67.60;;;;;;5068852;28;20032;-42
2022/09/02 09:16:57;;;;;;;3.58;1.10;;;27.50;68.80;;;;;;5073273;28;20020;-45
2022/09/02 09:19:46;;;;;;;1.42;1.25;;;27.00;69.10;;;;;;5072972;28;20116;-44
2022/09/02 09:22:14;;;;;;;4.40;0.93;;;26.50;69.70;;;;;;5073070;28;20078;-45
2022/09/02 09:24:43;;;;;;;1.80;0.95;;;26.20;70.30;;;;;;5073023;28;20119;-43
2022/09/02 09:27:12;;;;;;;1.15;0.98;;;26.20;70.40;;;;;;5073121;28;20036;-42
2022/09/02 09:29:38;;;;;;;3.03;1.05;;;25.70;68.80;;;;;;5072974;28;20447;-46
2022/09/02 09:32:10;;;;;;;6.47;1.27;;;25.50;69.70;;;;;;5072791;28;20063;-44
2022/09/02 09:35:06;;;;;;;1.27;1.05;;;25.40;70.50;;;;;;5072932;28;20032;-45
2022/09/02 09:37:46;;;;;;;2.90;0.85;;;25.20;71.30;;;;;;5072824;28;20023;-43
2022/09/02 09:40:19;;;;;;;2.40;0.88;;;25.30;69.80;;;;;;5072724;28;20423;-46
2022/09/02 09:42:53;;;;;;;3.50;1.00;;;25.20;69.40;;;;;;5072265;28;20198;-41
2022/09/02 09:45:30;;;;;;;1.00;0.95;;;25.20;69.50;;;;;;5072744;28;20100;-43
2022/09/02 09:48:28;;;;;;;2.85;1.00;;;25.10;69.50;;;;;;5073057;28;20036;-46
2022/09/02 09:50:56;;;;;;;4.53;1.27;;;24.90;68.80;;;;;;5054931;28;20024;-45
2022/09/02 09:53:26;;;;;;;3.25;1.00;;;24.80;69.10;;;;;;5073104;28;20036;-45
2022/09/02 09:56:00;;;;;;;3.78;1.08;;;24.70;68.60;;;;;;5072392;28;20073;-46
2022/09/02 09:58:41;;;;;;;1.10;1.00;;;24.40;68.50;;;;;;5072579;28;20068;-47
2022/09/02 10:01:11;;;;;;;1.58;0.95;;;24.40;67.60;;;;;;5072303;28;20033;-44
2022/09/02 10:03:47;;;;;;;0.95;0.80;;;24.30;67.90;;;;;;5072157;28;20047;-47
2022/09/02 10:06:19;;;;;;;1.95;0.88;;;24.40;65.50;;;;;;5072424;28;20056;-45
2022/09/02 10:08:54;;;;;;;1.70;0.80;;;24.50;66.00;;;;;;5072034;28;20384;-44
2022/09/02 10:11:32;;;;;;;13.48;1.20;;;24.40;66.10;;;;;;5072358;28;20078;-44
2022/09/02 10:14:04;;;;;;;1.45;1.02;;;24.20;66.40;;;;;;5071768;28;20099;-45
2022/09/02 10:17:10;;;;;;;3.13;0.90;;;24.20;67.10;;;;;;5072541;28;20086;-45
2022/09/02 10:19:38;;;;;;;2.15;0.90;;;24.00;67.10;;;;;;5072192;28;20032;-45
2022/09/02 10:22:31;;;;;;;4.88;1.00;;;24.00;65.00;;;;;;5071582;28;20119;-43
2022/09/02 10:25:31;;;;;;;1.83;0.98;;;24.00;65.40;;;;;;5072099;28;20073;-47
2022/09/02 10:28:19;;;;;;;1.77;1.10;;;23.60;67.20;;;;;;5071928;28;20037;-47
2022/09/02 10:31:22;;;;;;;3.13;1.10;;;23.70;66.70;;;;;;5071674;28;20056;-46
2022/09/02 10:33:57;;;;;;;2.90;1.25;;;23.70;66.90;;;;;;5071697;28;20037;-44
2022/09/02 10:37:01;;;;;;;7.63;0.90;;;24.00;68.00;;;;;;5072005;28;20044;-43
2022/09/02 10:39:44;;;;;;;1.15;1.02;;;24.30;68.20;;;;;;5071657;28;20322;-43
2022/09/02 10:42:21;;;;;;;1.95;1.08;;;24.30;68.10;;;;;;5071344;28;20024;-46
2022/09/02 10:45:12;;;;;;;5.82;0.90;;;24.40;67.90;;;;;;5071778;28;20491;-46
2022/09/02 10:47:39;;;;;;;5.68;1.17;;;24.40;67.00;;;;;;5071655;28;20040;-44
2022/09/02 10:50:16;;;;;;;5.47;0.80;;;24.20;67.60;;;;;;5071530;28;20024;-45
2022/09/02 10:53:03;;;;;;;3.42;0.95;;;23.90;68.40;;;;;;5071091;28;20037;-43
2022/09/02 10:55:44;;;;;;;3.58;0.90;;;23.80;69.00;;;;;;5071433;28;20020;-46
2022/09/02 10:58:18;;;;;;;2.00;1.00;;;23.90;67.90;;;;;;5071267;28;20024;-48
2022/09/02 11:00:50;;;;;;;4.88;0.80;;;23.80;67.50;;;;;;5071752;28;20488;-43
2022/09/02 11:03:24;;;;;;;3.08;0.80;;;23.80;67.20;;;;;;5070949;28;20033;-43
2022/09/02 11:06:10;;;;;;;2.38;1.30;;;23.80;67.50;;;;;;5071726;28;20022;-42
2022/09/02 11:08:42;;;;;;;1.27;1.10;;;23.80;67.60;;;;;;5071474;28;20107;-42
2022/09/02 11:11:20;;;;;;;1.20;0.73;;;23.90;66.70;;;;;;5071592;28;20395;-45
2022/09/02 11:13:53;;;;;;;0.80;0.80;;;23.80;67.90;;;;;;5071167;28;20025;-44
2022/09/02 11:16:34;;;;;;;0.85;0.82;;;23.90;68.30;;;;;;5071908;28;20082;-42
2022/09/02 11:19:05;;;;;;;8.68;1.20;;;23.80;68.40;;;;;;5071575;28;20200;-45
2022/09/02 11:21:33;;;;;;;4.15;1.10;;;23.90;68.20;;;;;;5074452;28;20024;-44
2022/09/02 11:24:15;;;;;;;4.28;1.00;;;24.00;68.00;;;;;;5075026;28;20032;-42
2022/09/02 11:27:03;;;;;;;2.05;0.95;;;24.10;67.20;;;;;;5075475;28;20027;-45
2022/09/02 11:29:45;;;;;;;4.10;1.00;;;24.10;68.10;;;;;;5075576;28;20021;-43
2022/09/02 11:32:24;;;;;;;0.93;0.90;;;23.90;67.70;;;;;;5075119;28;20483;-48
2022/09/02 11:34:52;;;;;;;3.95;0.88;;;23.80;68.70;;;;;;5075178;28;20029;-44
2022/09/02 11:37:31;;;;;;;1.13;0.70;;;23.90;69.40;;;;;;5075133;28;20035;-45
2022/09/02 11:40:06;;;;;;;5.50;1.05;;;23.90;68.50;;;;;;5075284;28;20074;-45
2022/09/02 11:42:40;;;;;;;4.18;1.00;;;23.80;68.80;;;;;;5075002;28;20111;-45
2022/09/02 11:45:31;;;;;;;1.67;1.13;;;23.70;68.40;;;;;;5074906;28;20388;-45
2022/09/02 11:48:23;;;;;;;1.40;0.73;;;23.70;68.00;;;;;;5074969;28;20029;-46
2022/09/02 11:51:21;;;;;;;6.13;0.90;;;23.70;68.80;;;;;;5074881;28;20029;-46
2022/09/02 11:53:47;;;;;;;8.63;1.27;;;23.70;68.50;;;;;;5070213;28;20048;-42
2022/09/02 11:56:13;;;;;;;1.30;1.20;;;23.80;68.90;;;;;;5075064;28;20103;-45
2022/09/02 11:58:45;;;;;;;3.83;1.10;;;23.90;68.00;;;;;;5074878;28;20032;-43
2022/09/02 12:01:31;;;;;;;0.95;0.77;;;23.90;68.20;;;;;;5074968;28;20021;-46
2022/09/02 12:04:02;;;;;;;2.95;1.05;;;24.00;67.60;;;;;;5074378;28;20017;-48
2022/09/02 12:06:28;;;;;;;1.15;0.65;;;24.00;67.60;;;;;;5074763;28;20016;-43
2022/09/02 12:08:54;;;;;;;1.40;0.80;;;23.90;67.20;;;;;;5074925;28;20078;-43
2022/09/02 12:11:40;;;;;;;1.33;0.93;;;23.90;67.50;;;;;;5075306;28;20020;-44
2022/09/02 12:14:27;;;;;;;3.22;0.95;;;23.90;67.30;;;;;;5074442;28;20032;-44
2022/09/02 12:17:01;;;;;;;4.63;0.85;;;24.00;67.30;;;;;;5033517;28;20047;-42
2022/09/02 12:19:39;;;;;;;1.48;1.05;;;24.00;66.10;;;;;;5075152;28;20341;-48
2022/09/02 12:22:17;;;;;;;2.50;1.00;;;23.90;66.40;;;;;;5056713;28;20038;-45
2022/09/02 12:24:51;;;;;;;4.07;1.05;;;23.90;66.20;;;;;;5074759;28;20518;-43
2022/09/02 12:27:28;;;;;;;2.42;0.88;;;23.90;66.20;;;;;;5074614;28;20036;-45
2022/09/02 12:29:55;;;;;;;1.30;1.20;;;24.00;66.20;;;;;;5074754;28;20051;-45
2022/09/02 12:32:59;;;;;;;1.75;1.13;;;24.10;65.90;;;;;;5073253;28;20048;-43
2022/09/02 12:35:31;;;;;;;1.08;0.70;;;24.20;66.10;;;;;;5074334;28;20497;-44
2022/09/02 12:38:20;;;;;;;2.10;0.95;;;24.20;65.30;;;;;;5074242;28;20029;-43
2022/09/02 12:40:56;;;;;;;1.60;0.90;;;24.20;65.30;;;;;;5074192;28;20059;-46
2022/09/02 12:43:27;;;;;;;2.30;0.90;;;24.30;64.20;;;;;;5073869;28;20020;-45
2022/09/02 12:45:59;;;;;;;2.78;0.82;;;24.20;64.80;;;;;;5074215;28;20503;-43
2022/09/02 12:48:36;;;;;;;3.42;0.90;;;24.10;64.70;;;;;;5074307;28;20048;-42
2022/09/02 12:51:02;;;;;;;1.20;0.85;;;24.20;65.20;;;;;;5074140;28;20033;-42
2022/09/02 12:53:45;;;;;;;3.08;1.00;;;24.20;64.40;;;;;;5073595;28;20036;-45
2022/09/02 12:56:23;;;;;;;2.75;1.05;;;24.20;64.00;;;;;;5073720;28;20517;-45
2022/09/02 12:58:54;;;;;;;0.90;0.90;;;24.20;63.50;;;;;;5074136;28;20027;-43
2022/09/02 13:01:46;;;;;;;1.70;1.00;;;24.20;64.30;;;;;;5073884;28;20033;-44
2022/09/02 13:04:21;;;;;;;1.10;0.90;;;24.30;64.70;;;;;;5073500;28;20020;-44